Time;durP1;ratioP1;P1;durP2;ratioP2;P2;SDS_P1;SDS_P2;PMS_P1;PMS_P2;Temp;Humidity;BMP_temperature;BMP_pressure;BME280_temperature;BME280_humidity;BME280_pressure;Samples;Min_cycle;Max_cycle;Signal;HPM_P1;HPM_P2
2021/09/20 00:02:03;;;;;;;11.60;10.40;;;;;;;10.01;68.57;100403.53;4993308;28;97811;-76
2021/09/20 00:04:29;;;;;;;13.00;10.32;;;;;;;10.00;68.29;100405.25;4967653;28;99340;-76
2021/09/20 00:06:54;;;;;;;10.57;9.52;;;;;;;9.98;68.60;100399.22;4995550;28;96996;-76
2021/09/20 00:09:20;;;;;;;11.85;10.65;;;;;;;9.90;68.77;100396.81;4962093;28;101196;-75
2021/09/20 00:11:45;;;;;;;12.52;10.68;;;;;;;9.92;68.49;100404.66;4996005;28;97464;-75
2021/09/20 00:14:11;;;;;;;11.45;10.25;;;;;;;9.95;68.58;100404.56;4983297;28;96776;-76
2021/09/20 00:16:36;;;;;;;12.82;10.07;;;;;;;9.94;68.09;100408.91;4990035;28;97957;-76
2021/09/20 00:19:02;;;;;;;12.38;10.02;;;;;;;9.95;67.98;100407.19;4977372;28;101576;-76
2021/09/20 00:21:28;;;;;;;12.20;11.00;;;;;;;9.95;68.43;100412.44;4959320;28;101323;-76
2021/09/20 00:23:53;;;;;;;11.50;10.30;;;;;;;10.01;68.18;100408.78;4978801;28;96768;-76
2021/09/20 00:26:19;;;;;;;14.45;10.85;;;;;;;10.03;68.13;100407.78;4987270;28;97075;-76
2021/09/20 00:28:44;;;;;;;11.85;10.75;;;;;;;10.04;68.86;100411.28;4992465;28;101726;-76
2021/09/20 00:31:10;;;;;;;14.50;11.40;;;;;;;10.01;68.72;100409.63;4992980;28;97378;-76
2021/09/20 00:33:36;;;;;;;12.23;10.57;;;;;;;10.05;68.83;100408.59;4998320;28;96779;-76
2021/09/20 00:36:02;;;;;;;12.48;11.23;;;;;;;10.10;68.51;100405.84;5005653;28;96814;-76
2021/09/20 00:38:27;;;;;;;12.93;11.60;;;;;;;9.93;69.12;100395.88;4975113;28;101360;-76
2021/09/20 00:40:53;;;;;;;14.15;11.13;;;;;;;10.08;68.57;100415.53;4999316;28;97415;-75
2021/09/20 00:43:19;;;;;;;12.57;11.27;;;;;;;10.17;68.61;100410.00;4970858;28;96749;-76
2021/09/20 00:45:44;;;;;;;14.80;12.05;;;;;;;10.17;68.84;100410.00;4989888;28;96926;-75
2021/09/20 00:48:10;;;;;;;13.43;11.63;;;;;;;10.27;69.06;100410.59;4977524;28;101014;-76
2021/09/20 00:50:36;;;;;;;15.85;11.77;;;;;;;10.22;69.10;100400.22;4975633;28;101314;-75
2021/09/20 00:53:02;;;;;;;13.23;11.82;;;;;;;10.30;69.36;100400.88;4974344;28;97890;-76
2021/09/20 00:55:27;;;;;;;13.38;11.75;;;;;;;10.34;68.92;100412.13;4973817;28;96845;-75
2021/09/20 00:57:53;;;;;;;14.13;10.60;;;;;;;10.35;69.19;100401.56;4994982;28;97663;-76
2021/09/20 01:00:19;;;;;;;12.75;10.77;;;;;;;10.37;69.19;100401.53;4980244;28;97886;-76
2021/09/20 01:02:45;;;;;;;11.45;10.25;;;;;;;10.39;69.10;100407.59;4970068;28;97258;-76
2021/09/20 01:05:11;;;;;;;13.45;12.07;;;;;;;10.41;69.55;100404.03;4970130;28;96854;-76
2021/09/20 01:07:38;;;;;;;12.80;10.80;;;;;;;10.46;69.26;100405.63;4982129;28;98159;-76
2021/09/20 01:10:04;;;;;;;14.70;10.68;;;;;;;10.46;69.42;100405.63;4982003;28;101371;-76
2021/09/20 01:12:30;;;;;;;12.55;11.00;;;;;;;10.47;69.73;100405.59;4986802;28;97361;-76
2021/09/20 01:14:57;;;;;;;15.02;10.77;;;;;;;10.42;69.84;100397.00;4971049;28;96878;-76
2021/09/20 01:17:23;;;;;;;18.40;11.10;;;;;;;10.49;69.33;100398.50;4979387;28;101889;-76
2021/09/20 01:19:48;;;;;;;14.40;11.45;;;;;;;10.55;69.54;100406.19;4975507;28;101015;-76
2021/09/20 01:22:16;;;;;;;13.43;11.07;;;;;;;10.57;69.38;100406.16;4981281;28;98032;-76
2021/09/20 01:24:43;;;;;;;11.23;10.00;;;;;;;10.63;69.59;100400.69;4967822;28;97007;-76
2021/09/20 01:27:08;;;;;;;12.32;10.82;;;;;;;10.69;69.53;100400.50;4980182;28;101585;-75
2021/09/20 01:29:34;;;;;;;12.88;10.13;;;;;;;10.60;69.59;100390.28;4981005;28;100034;-76
2021/09/20 01:32:01;;;;;;;14.65;10.65;;;;;;;10.58;70.17;100400.84;4980893;28;96903;-76
2021/09/20 01:34:27;;;;;;;14.43;10.68;;;;;;;10.65;69.82;100396.25;4998066;28;96925;-76
2021/09/20 01:36:53;;;;;;;12.32;10.05;;;;;;;10.75;69.59;100396.81;4977037;28;101374;-76
2021/09/20 01:39:24;;;;;;;12.35;11.07;;;;;;;10.57;69.74;100386.00;4975434;28;98573;-76
2021/09/20 01:41:50;;;;;;;12.07;10.73;;;;;;;10.77;69.56;100400.25;4970254;28;96783;-76
2021/09/20 01:44:16;;;;;;;11.65;10.45;;;;;;;10.72;69.69;100391.66;4987522;28;96838;-76
2021/09/20 01:46:43;;;;;;;12.38;10.95;;;;;;;10.67;69.97;100385.69;4991823;28;99084;-78
2021/09/20 01:49:09;;;;;;;14.88;11.35;;;;;;;10.71;70.18;100393.44;4989342;28;97908;-76
2021/09/20 01:51:35;;;;;;;11.10;9.73;;;;;;;10.70;70.32;100396.09;4980813;28;97426;-76
2021/09/20 01:54:01;;;;;;;14.10;10.57;;;;;;;10.73;70.33;100401.25;4980353;28;96907;-76
2021/09/20 01:56:26;;;;;;;13.85;11.10;;;;;;;10.80;70.29;100402.75;4997022;28;98078;-76
2021/09/20 01:58:52;;;;;;;12.93;10.60;;;;;;;10.83;69.99;100403.50;4977836;28;101355;-76
2021/09/20 02:01:17;;;;;;;13.75;11.10;;;;;;;10.79;70.12;100401.03;4961932;28;96679;-76
2021/09/20 02:03:43;;;;;;;11.10;9.93;;;;;;;10.75;69.96;100391.56;4993922;28;97199;-76
2021/09/20 02:06:08;;;;;;;13.70;9.93;;;;;;;10.79;70.36;100398.41;4962568;28;101426;-78
2021/09/20 02:08:34;;;;;;;12.82;10.60;;;;;;;10.83;70.15;100397.41;4994499;28;101794;-78
2021/09/20 02:11:00;;;;;;;14.77;10.02;;;;;;;10.88;70.20;100395.50;4992500;28;96795;-78
2021/09/20 02:13:25;;;;;;;13.18;10.07;;;;;;;10.91;70.33;100397.13;4994355;28;98182;-78
2021/09/20 02:15:51;;;;;;;13.15;10.25;;;;;;;10.86;69.96;100392.91;4980699;28;101617;-78
2021/09/20 02:18:16;;;;;;;14.43;9.93;;;;;;;10.90;70.20;100392.78;4977993;28;98047;-78
2021/09/20 02:20:42;;;;;;;14.68;10.40;;;;;;;10.88;70.29;100391.09;4994780;28;96921;-78
2021/09/20 02:23:07;;;;;;;14.55;10.55;;;;;;;10.88;70.49;100398.97;4990464;28;97519;-78
2021/09/20 02:25:33;;;;;;;12.50;11.10;;;;;;;10.89;70.28;100399.81;4981381;28;101511;-78
2021/09/20 02:27:58;;;;;;;11.70;10.50;;;;;;;10.88;70.46;100408.63;4986876;28;100927;-78
2021/09/20 02:30:24;;;;;;;11.30;10.05;;;;;;;10.87;70.29;100401.63;4982387;28;96840;-76
2021/09/20 02:32:49;;;;;;;11.70;10.23;;;;;;;10.82;70.07;100409.69;4979305;28;96959;-77
2021/09/20 02:35:15;;;;;;;12.52;10.70;;;;;;;10.85;70.29;100399.06;4980201;28;97832;-76
2021/09/20 02:37:41;;;;;;;11.48;10.27;;;;;;;10.92;70.39;100410.22;4973418;28;100342;-76
2021/09/20 02:40:08;;;;;;;17.27;11.48;;;;;;;10.96;70.18;100405.72;4982559;28;97263;-76
2021/09/20 02:42:33;;;;;;;13.48;10.60;;;;;;;10.89;70.72;100407.69;4963790;28;97346;-76
2021/09/20 02:44:59;;;;;;;11.65;10.43;;;;;;;10.95;70.17;100396.13;4997437;28;97552;-76
2021/09/20 02:47:24;;;;;;;12.02;10.13;;;;;;;11.02;70.26;100406.34;5001710;28;97389;-76
2021/09/20 02:49:50;;;;;;;11.65;10.43;;;;;;;10.99;70.45;100405.59;4997185;28;98272;-76
2021/09/20 02:52:15;;;;;;;12.15;10.27;;;;;;;10.95;70.92;100398.75;4987550;28;97087;-76
2021/09/20 02:54:41;;;;;;;12.13;10.82;;;;;;;10.94;70.76;100403.16;4984132;28;101336;-76
2021/09/20 02:57:06;;;;;;;15.15;10.82;;;;;;;11.03;70.90;100404.63;4984673;28;101660;-77
2021/09/20 02:59:32;;;;;;;12.23;10.35;;;;;;;11.05;70.64;100413.28;4997327;28;96683;-76
2021/09/20 03:01:57;;;;;;;13.40;10.43;;;;;;;10.92;70.97;100407.59;4990200;28;96956;-76
2021/09/20 03:04:23;;;;;;;12.65;10.10;;;;;;;10.93;70.94;100411.94;4996168;28;102023;-76
2021/09/20 03:06:48;;;;;;;12.60;10.35;;;;;;;10.89;71.05;100397.19;4994813;28;101388;-76
2021/09/20 03:09:14;;;;;;;12.57;10.57;;;;;;;10.99;71.02;100414.34;4977537;28;96757;-76
2021/09/20 03:11:39;;;;;;;10.93;9.77;;;;;;;11.01;70.95;100409.91;4977344;28;96984;-76
2021/09/20 03:14:05;;;;;;;13.57;10.20;;;;;;;11.03;70.93;100413.34;4995883;28;100962;-76
2021/09/20 03:16:30;;;;;;;11.00;9.90;;;;;;;10.99;71.10;100414.34;4995823;28;101412;-76
2021/09/20 03:18:56;;;;;;;11.35;10.20;;;;;;;11.05;70.85;100413.28;4996679;28;98401;-77
2021/09/20 03:21:24;;;;;;;12.77;10.35;;;;;;;11.03;70.99;100417.75;4994924;28;98218;-76
2021/09/20 03:23:50;;;;;;;11.95;10.23;;;;;;;11.01;71.05;100422.19;5013412;28;98514;-76
2021/09/20 03:26:16;;;;;;;11.40;9.25;;;;;;;10.99;71.19;100409.09;4975400;28;101869;-76
2021/09/20 03:28:41;;;;;;;10.38;9.20;;;;;;;11.03;71.13;100423.84;4984371;28;97068;-76
2021/09/20 03:31:07;;;;;;;10.82;9.70;;;;;;;11.03;70.99;100426.47;4996336;28;96971;-76
2021/09/20 03:33:33;;;;;;;10.68;9.18;;;;;;;11.09;70.60;100417.53;4988491;28;101576;-76
2021/09/20 03:35:58;;;;;;;15.15;10.43;;;;;;;11.08;70.97;100426.31;4989976;28;101367;-76
2021/09/20 03:38:24;;;;;;;11.70;9.43;;;;;;;11.07;71.28;100430.72;5001347;28;97854;-76
2021/09/20 03:40:50;;;;;;;13.85;9.63;;;;;;;11.08;70.94;100428.94;4981179;28;96852;-76
2021/09/20 03:43:15;;;;;;;11.55;9.45;;;;;;;10.97;71.32;100416.19;5004265;28;98025;-77
2021/09/20 03:45:41;;;;;;;12.05;10.07;;;;;;;11.10;71.16;100422.72;4989495;28;97752;-77
2021/09/20 03:48:07;;;;;;;11.93;10.07;;;;;;;11.07;71.17;100430.72;4978516;28;96847;-77
2021/09/20 03:50:32;;;;;;;13.45;9.73;;;;;;;11.12;71.28;100429.72;4995836;28;97105;-76
2021/09/20 03:52:58;;;;;;;16.90;10.13;;;;;;;11.07;71.14;100430.72;4988708;28;101300;-76
2021/09/20 03:55:23;;;;;;;11.70;10.02;;;;;;;11.07;71.30;100435.97;4986968;28;97865;-76
2021/09/20 03:57:49;;;;;;;13.30;9.88;;;;;;;11.02;71.38;100423.88;4983952;28;96940;-77
2021/09/20 04:00:15;;;;;;;14.07;9.65;;;;;;;10.99;71.55;100429.25;4988897;28;96908;-76
2021/09/20 04:02:41;;;;;;;10.43;9.32;;;;;;;10.98;71.72;100425.78;4981581;28;100943;-76
2021/09/20 04:05:07;;;;;;;11.45;10.35;;;;;;;10.96;71.59;100419.69;4991690;28;101251;-76
2021/09/20 04:07:32;;;;;;;11.52;10.40;;;;;;;10.97;71.97;100431.09;4994553;28;97281;-76
2021/09/20 04:09:58;;;;;;;11.65;10.40;;;;;;;10.96;72.02;100427.59;4965759;28;97151;-76
2021/09/20 04:12:23;;;;;;;14.88;12.75;;;;;;;10.96;72.24;100427.59;4993514;28;97588;-76
2021/09/20 04:14:49;;;;;;;12.82;10.80;;;;;;;10.96;71.83;100427.59;4963967;28;101325;-76
2021/09/20 04:17:14;;;;;;;12.80;10.60;;;;;;;10.94;72.16;100426.81;4994437;28;97379;-77
2021/09/20 04:19:40;;;;;;;11.65;10.45;;;;;;;10.90;71.87;100419.06;4978381;28;97285;-76
2021/09/20 04:22:06;;;;;;;13.48;10.80;;;;;;;10.97;72.04;100420.59;4993374;28;98193;-77
2021/09/20 04:24:31;;;;;;;11.50;10.43;;;;;;;11.01;71.72;100423.03;4977373;28;101697;-76
2021/09/20 04:26:57;;;;;;;11.18;10.00;;;;;;;11.02;71.73;100432.63;4988189;28;97077;-76
2021/09/20 04:29:22;;;;;;;11.60;10.50;;;;;;;10.93;71.71;100417.19;4977962;28;97517;-77
2021/09/20 04:31:48;;;;;;;11.50;10.30;;;;;;;10.97;71.73;100426.69;4989950;28;97467;-77
2021/09/20 04:34:13;;;;;;;12.10;10.43;;;;;;;11.01;71.67;100423.03;4997971;28;98139;-76
2021/09/20 04:36:39;;;;;;;12.38;10.57;;;;;;;11.03;71.95;100433.50;4971345;28;97156;-77
2021/09/20 04:39:04;;;;;;;16.67;11.32;;;;;;;11.03;72.07;100426.47;4997482;28;97220;-77
2021/09/20 04:41:30;;;;;;;14.23;12.73;;;;;;;11.05;72.06;100436.91;4983827;28;101135;-76
2021/09/20 04:43:55;;;;;;;11.80;10.57;;;;;;;11.02;71.97;100432.63;4981895;28;99497;-76
2021/09/20 04:46:21;;;;;;;10.82;9.73;;;;;;;10.98;72.19;100424.91;4990758;28;97050;-76
2021/09/20 04:48:46;;;;;;;12.90;10.68;;;;;;;11.07;71.69;100442.97;4986078;28;96880;-76
2021/09/20 04:51:12;;;;;;;12.20;11.07;;;;;;;11.04;72.10;100448.34;4975941;28;97389;-77
2021/09/20 04:53:37;;;;;;;16.55;10.80;;;;;;;11.03;72.55;100450.13;4997106;28;100720;-76
2021/09/20 04:56:03;;;;;;;12.57;10.77;;;;;;;11.04;72.24;100454.44;4977030;28;97288;-76
2021/09/20 04:58:28;;;;;;;14.05;8.77;;;;;;;11.10;72.31;100459.50;4982835;28;96946;-77
2021/09/20 05:00:55;;;;;;;20.60;10.15;;;;;;;11.09;72.71;100465.66;4999093;28;98120;-76
2021/09/20 05:03:21;;;;;;;12.65;9.00;;;;;;;11.09;72.78;100467.44;4973507;28;100161;-76
2021/09/20 05:05:47;;;;;;;11.90;8.55;;;;;;;11.00;72.55;100457.25;5002543;28;96802;-76
2021/09/20 05:08:12;;;;;;;14.68;8.48;;;;;;;11.09;72.63;100475.31;4990163;28;96852;-76
2021/09/20 05:10:39;;;;;;;12.48;9.25;;;;;;;11.02;72.62;100469.41;4989532;28;103126;-76
2021/09/20 05:13:04;;;;;;;15.45;8.88;;;;;;;11.04;72.39;100474.63;4976349;28;100387;-76
2021/09/20 05:15:30;;;;;;;10.98;8.98;;;;;;;11.07;72.48;100471.88;5009923;28;96897;-76
2021/09/20 05:17:55;;;;;;;17.23;8.80;;;;;;;11.13;72.55;100479.56;5021842;28;97046;-76
2021/09/20 05:20:22;;;;;;;9.82;8.63;;;;;;;11.09;72.61;100480.59;4984132;28;101240;-76
2021/09/20 05:22:48;;;;;;;11.07;8.43;;;;;;;11.13;72.77;100481.31;4986901;28;100926;-76
2021/09/20 05:25:13;;;;;;;12.27;8.65;;;;;;;11.10;72.94;100482.28;4987746;28;97070;-76
2021/09/20 05:27:39;;;;;;;10.93;9.13;;;;;;;11.12;72.50;100479.63;4976317;28;97130;-76
2021/09/20 05:30:06;;;;;;;10.80;8.88;;;;;;;11.09;72.71;100484.06;5009016;28;97983;-75
2021/09/20 05:32:32;;;;;;;14.73;9.75;;;;;;;11.15;72.50;100490.88;4968785;28;101373;-75
2021/09/20 05:34:57;;;;;;;10.38;9.38;;;;;;;11.12;72.49;100480.47;5012953;28;96907;-75
2021/09/20 05:37:23;;;;;;;12.15;9.23;;;;;;;11.19;72.61;100489.84;4992623;28;98773;-75
2021/09/20 05:39:49;;;;;;;11.93;9.18;;;;;;;11.24;72.40;100493.19;5004890;28;98057;-74
2021/09/20 05:42:16;;;;;;;10.82;9.25;;;;;;;11.22;72.33;100491.53;5009040;28;97398;-78
2021/09/20 05:44:42;;;;;;;10.68;9.25;;;;;;;11.20;72.52;100490.72;4975538;28;96804;-78
2021/09/20 05:47:08;;;;;;;13.88;9.30;;;;;;;11.21;72.40;100480.16;5005511;28;97620;-78
2021/09/20 05:49:33;;;;;;;13.60;9.85;;;;;;;11.28;72.21;100499.19;4983265;28;101188;-79
2021/09/20 05:51:59;;;;;;;13.50;8.80;;;;;;;11.36;71.90;100501.56;4964349;28;101494;-78
2021/09/20 05:54:24;;;;;;;14.65;9.88;;;;;;;11.28;72.29;100499.19;4991768;28;97750;-79
2021/09/20 05:56:50;;;;;;;10.10;8.45;;;;;;;11.30;72.33;100498.22;4970094;28;98035;-79
2021/09/20 05:59:15;;;;;;;11.63;9.32;;;;;;;11.32;72.28;100499.06;5001640;28;98094;-78
2021/09/20 06:01:41;;;;;;;12.55;8.77;;;;;;;11.43;71.93;100506.56;4976586;28;98087;-78
2021/09/20 06:04:07;;;;;;;11.07;9.15;;;;;;;11.33;72.32;100495.50;4989599;28;96864;-78
2021/09/20 06:06:32;;;;;;;13.05;9.13;;;;;;;11.37;71.75;100498.88;4993751;28;97240;-78
2021/09/20 06:08:58;;;;;;;10.63;8.70;;;;;;;11.43;71.31;100503.06;4978456;28;97691;-78
2021/09/20 06:11:23;;;;;;;12.13;10.10;;;;;;;11.49;71.28;100506.38;4988806;28;101890;-78
2021/09/20 06:13:49;;;;;;;11.18;10.18;;;;;;;11.51;71.51;100506.28;4971779;28;96799;-78
2021/09/20 06:16:15;;;;;;;14.52;9.18;;;;;;;11.56;71.09;100499.97;5010210;28;96896;-78
2021/09/20 06:18:40;;;;;;;11.48;9.57;;;;;;;11.56;70.78;100497.34;4983724;28;98648;-78
2021/09/20 06:21:06;;;;;;;9.90;8.90;;;;;;;11.64;70.34;100510.22;4989838;28;97480;-78
2021/09/20 06:23:31;;;;;;;15.85;10.02;;;;;;;11.60;71.22;100511.22;4977442;28;96906;-78
2021/09/20 06:25:57;;;;;;;10.57;9.55;;;;;;;11.59;70.71;100508.66;4974285;28;97327;-78
2021/09/20 06:28:22;;;;;;;11.60;9.38;;;;;;;11.61;71.04;100510.31;4992176;28;97938;-78
2021/09/20 06:30:48;;;;;;;10.60;9.52;;;;;;;11.61;70.65;100512.09;4978255;28;97480;-78
2021/09/20 06:33:14;;;;;;;16.65;8.82;;;;;;;11.66;70.38;100512.78;4991862;28;97361;-78
2021/09/20 06:35:39;;;;;;;11.02;9.73;;;;;;;11.67;71.31;100506.63;5005530;28;97030;-78
2021/09/20 06:38:05;;;;;;;14.60;10.00;;;;;;;11.70;70.81;100517.88;4988565;28;101655;-78
2021/09/20 06:40:31;;;;;;;13.40;9.63;;;;;;;11.67;71.18;100520.63;5000320;28;101310;-78
2021/09/20 06:42:57;;;;;;;11.88;9.68;;;;;;;11.71;70.51;100530.09;4988728;28;97637;-78
2021/09/20 06:45:23;;;;;;;11.48;9.60;;;;;;;11.78;70.91;100523.75;4974637;28;97247;-74
2021/09/20 06:47:48;;;;;;;11.35;9.10;;;;;;;11.78;70.46;100530.78;4989329;28;98227;-74
2021/09/20 06:50:14;;;;;;;11.85;9.55;;;;;;;11.72;70.53;100516.06;4999213;28;101000;-74
2021/09/20 06:52:40;;;;;;;10.85;9.00;;;;;;;11.76;70.63;100525.56;4994087;28;97464;-75
2021/09/20 06:55:06;;;;;;;11.52;9.25;;;;;;;11.84;70.90;100525.28;4992313;28;96875;-75
2021/09/20 06:57:32;;;;;;;13.25;9.90;;;;;;;11.78;70.93;100520.25;4981000;28;98040;-78
2021/09/20 06:59:58;;;;;;;12.20;9.80;;;;;;;11.80;70.42;100526.28;4962901;28;97824;-78
2021/09/20 07:02:23;;;;;;;14.70;9.52;;;;;;;11.83;70.32;100525.34;4966582;28;97367;-76
2021/09/20 07:04:49;;;;;;;12.10;10.20;;;;;;;11.84;70.50;100533.19;4962137;28;97720;-76
2021/09/20 07:07:17;;;;;;;14.48;9.40;;;;;;;11.94;70.38;100541.63;4951078;28;100933;-76
2021/09/20 07:09:43;;;;;;;14.25;9.18;;;;;;;11.96;69.62;100534.53;4962379;28;101424;-76
2021/09/20 07:12:09;;;;;;;12.73;10.00;;;;;;;12.02;70.23;100539.56;4985249;28;96812;-76
2021/09/20 07:14:34;;;;;;;10.95;9.65;;;;;;;12.03;70.12;100543.06;4983664;28;98007;-76
2021/09/20 07:17:00;;;;;;;16.10;9.55;;;;;;;12.12;70.26;100542.72;4981691;28;97611;-76
2021/09/20 07:19:25;;;;;;;12.90;9.18;;;;;;;12.10;70.33;100547.16;4968151;28;97603;-75
2021/09/20 07:21:51;;;;;;;15.00;10.18;;;;;;;12.12;70.18;100547.97;4969237;28;97054;-75
2021/09/20 07:24:16;;;;;;;15.38;10.07;;;;;;;12.09;70.04;100542.84;4969092;28;96904;-82
2021/09/20 07:26:42;;;;;;;13.82;10.27;;;;;;;12.09;70.12;100543.69;4937842;28;101867;-84
2021/09/20 07:29:08;;;;;;;14.70;9.73;;;;;;;12.19;69.64;100549.50;4969334;28;97895;-80
2021/09/20 07:31:34;;;;;;;11.38;9.70;;;;;;;12.15;70.03;100539.97;4974199;28;97285;-78
2021/09/20 07:33:59;;;;;;;12.35;9.98;;;;;;;12.31;69.81;100553.44;4947312;28;97684;-78
2021/09/20 07:36:25;;;;;;;13.65;9.25;;;;;;;12.35;69.57;100550.63;4946029;28;101822;-81
2021/09/20 07:38:51;;;;;;;15.15;10.10;;;;;;;12.43;68.99;100552.97;4979262;28;97430;-79
2021/09/20 07:41:16;;;;;;;11.95;10.63;;;;;;;12.47;68.84;100541.38;4943603;28;97318;-80
2021/09/20 07:43:45;;;;;;;12.00;8.82;;;;;;;12.55;68.62;100547.22;4961275;28;97285;-82
2021/09/20 07:46:12;;;;;;;13.27;9.60;;;;;;;12.58;67.76;100547.09;4945730;28;101437;-83
2021/09/20 07:48:38;;;;;;;10.77;9.68;;;;;;;12.73;68.28;100550.91;4970797;28;102930;-75
2021/09/20 07:51:04;;;;;;;12.10;10.13;;;;;;;12.80;68.05;100551.53;4965826;28;96824;-74
2021/09/20 07:53:29;;;;;;;17.80;9.93;;;;;;;12.86;67.63;100551.31;4962475;28;96879;-75
2021/09/20 07:55:54;;;;;;;13.52;9.88;;;;;;;12.96;67.67;100564.97;4965378;28;101303;-75
2021/09/20 07:58:20;;;;;;;11.80;10.57;;;;;;;12.90;67.46;100553.75;4966583;28;97914;-75
2021/09/20 08:00:45;;;;;;;14.98;9.68;;;;;;;12.90;67.49;100555.53;4996622;28;97148;-75
2021/09/20 08:03:11;;;;;;;11.68;10.23;;;;;;;12.89;67.38;100562.56;4976031;28;97031;-75
2021/09/20 08:05:38;;;;;;;13.25;10.27;;;;;;;12.95;66.92;100568.53;4991786;28;97699;-75
2021/09/20 08:08:04;;;;;;;18.05;9.73;;;;;;;13.02;66.67;100565.56;4970027;28;101570;-75
2021/09/20 08:10:33;;;;;;;11.32;9.55;;;;;;;13.02;66.46;100576.09;4977364;28;98130;-75
2021/09/20 08:12:58;;;;;;;12.27;10.48;;;;;;;12.98;66.20;100573.66;4975046;28;96917;-75
2021/09/20 08:15:25;;;;;;;12.82;10.32;;;;;;;13.00;66.57;100577.97;5001042;28;99818;-76
2021/09/20 08:17:51;;;;;;;16.58;10.30;;;;;;;13.03;66.44;100576.97;4995244;28;97835;-76
2021/09/20 08:20:17;;;;;;;16.67;10.15;;;;;;;12.99;66.28;100568.31;4976166;28;98377;-76
2021/09/20 08:22:44;;;;;;;12.10;9.70;;;;;;;13.00;66.45;100572.69;4975237;28;96943;-76
2021/09/20 08:25:10;;;;;;;16.63;10.02;;;;;;;13.05;66.18;100569.84;4980990;28;101615;-77
2021/09/20 08:27:35;;;;;;;15.93;9.77;;;;;;;13.00;66.09;100574.44;4992398;28;98265;-76
2021/09/20 08:30:01;;;;;;;13.52;10.77;;;;;;;13.02;66.27;100578.75;4984269;28;97109;-77
2021/09/20 08:32:27;;;;;;;13.50;11.38;;;;;;;13.03;66.55;100583.13;4995029;28;97183;-77
2021/09/20 08:34:52;;;;;;;16.33;10.25;;;;;;;13.12;66.55;100579.25;4990750;28;98041;-77
2021/09/20 08:37:18;;;;;;;14.25;11.25;;;;;;;13.19;66.10;100580.69;4980826;28;101657;-77
2021/09/20 08:39:43;;;;;;;14.77;12.93;;;;;;;13.21;66.15;100585.94;4980430;28;97350;-77
2021/09/20 08:42:09;;;;;;;13.35;11.07;;;;;;;13.31;65.75;100584.66;4956039;28;97354;-77
2021/09/20 08:44:35;;;;;;;14.98;11.60;;;;;;;13.40;65.87;100591.31;4958544;28;98306;-77
2021/09/20 08:47:00;;;;;;;12.65;11.10;;;;;;;13.42;65.93;100585.06;4977744;28;97958;-76
2021/09/20 08:49:27;;;;;;;14.65;11.10;;;;;;;13.50;65.98;100595.31;4992740;28;97330;-77
2021/09/20 08:51:57;;;;;;;13.60;10.85;;;;;;;13.56;65.90;100592.41;4993783;28;97253;-76
2021/09/20 08:54:24;;;;;;;12.27;10.75;;;;;;;13.64;66.05;100592.06;4977938;28;101306;-78
2021/09/20 08:56:51;;;;;;;14.38;11.27;;;;;;;13.71;65.58;100598.81;4969848;28;101587;-77
2021/09/20 08:59:18;;;;;;;14.77;12.38;;;;;;;13.73;65.88;100589.91;4995105;28;97355;-77
2021/09/20 09:01:46;;;;;;;14.65;11.15;;;;;;;13.76;65.50;100597.69;4969562;28;97450;-77
2021/09/20 09:04:31;;;;;;;13.50;10.00;;;;;;;13.81;65.45;100602.75;4978915;28;97570;-77
2021/09/20 09:06:58;;;;;;;12.40;10.38;;;;;;;13.87;64.85;100593.72;4977634;28;100301;-77
2021/09/20 09:09:36;;;;;;;11.57;10.05;;;;;;;13.90;64.88;100599.72;4972923;28;97095;-77
2021/09/20 09:12:14;;;;;;;11.20;10.00;;;;;;;13.98;64.48;100602.03;4961424;28;97613;-77
2021/09/20 09:14:42;;;;;;;16.10;10.98;;;;;;;14.08;64.15;100598.06;4979135;28;101545;-77
2021/09/20 09:17:14;;;;;;;14.90;9.82;;;;;;;14.26;63.56;100599.03;4989567;28;101572;-77
2021/09/20 09:19:46;;;;;;;12.45;10.32;;;;;;;14.34;63.79;100598.69;4975136;28;97435;-77
2021/09/20 09:22:11;;;;;;;11.75;9.90;;;;;;;14.46;62.78;100596.34;4975638;28;97584;-77
2021/09/20 09:24:37;;;;;;;11.88;10.18;;;;;;;14.68;62.57;100600.66;4992948;28;102088;-77
2021/09/20 09:27:03;;;;;;;12.00;10.35;;;;;;;14.71;62.19;100597.88;4981707;28;101301;-77
2021/09/20 09:29:30;;;;;;;11.00;9.55;;;;;;;14.85;62.04;100598.09;5005640;28;97559;-77
2021/09/20 09:31:58;;;;;;;13.95;10.10;;;;;;;14.91;61.82;100581.09;4969227;28;97537;-77
2021/09/20 09:34:26;;;;;;;10.75;9.65;;;;;;;15.17;61.44;100596.53;4969095;28;99458;-78
2021/09/20 09:36:56;;;;;;;11.18;9.43;;;;;;;15.28;61.28;100596.03;4980629;28;97949;-77
2021/09/20 09:39:29;;;;;;;11.23;9.68;;;;;;;15.36;60.77;100599.16;4986863;28;97371;-77
2021/09/20 09:41:55;;;;;;;12.05;10.10;;;;;;;15.62;59.92;100595.19;4993177;28;97333;-76
2021/09/20 09:44:29;;;;;;;11.65;9.52;;;;;;;15.83;59.12;100589.78;4987877;28;101552;-77
2021/09/20 09:46:56;;;;;;;11.93;10.10;;;;;;;16.10;58.77;100589.28;4973501;28;101853;-77
2021/09/20 09:49:23;;;;;;;10.93;9.55;;;;;;;16.45;57.91;100598.84;4986530;28;98099;-77
2021/09/20 09:51:52;;;;;;;13.98;10.30;;;;;;;16.50;57.73;100588.84;4978786;28;97163;-77
2021/09/20 09:54:25;;;;;;;10.60;9.60;;;;;;;16.77;57.13;100595.41;4986096;28;101591;-76
2021/09/20 09:57:10;;;;;;;10.75;9.68;;;;;;;16.81;58.01;100594.28;4979186;28;101723;-76
2021/09/20 09:59:36;;;;;;;10.90;9.05;;;;;;;17.12;56.64;100594.28;4976202;28;97885;-76
2021/09/20 10:02:27;;;;;;;10.50;8.80;;;;;;;17.33;55.53;100596.63;4957006;28;97062;-77
2021/09/20 10:04:58;;;;;;;11.23;9.77;;;;;;;17.24;56.09;100594.50;4991328;28;98308;-76
2021/09/20 10:07:26;;;;;;;9.65;8.73;;;;;;;17.47;55.31;100587.88;4981783;28;101144;-76
2021/09/20 10:09:52;;;;;;;12.18;9.10;;;;;;;18.16;53.51;100579.31;4972309;28;97557;-77
2021/09/20 10:12:18;;;;;;;14.93;8.88;;;;;;;18.26;53.19;100577.78;4976083;28;97114;-76
2021/09/20 10:14:43;;;;;;;8.73;7.82;;;;;;;18.87;51.87;100574.91;4977997;28;101380;-77
2021/09/20 10:17:15;;;;;;;9.02;7.88;;;;;;;18.68;51.38;100576.06;4978438;28;98501;-76
2021/09/20 10:19:42;;;;;;;8.30;7.50;;;;;;;19.73;49.44;100571.91;5007234;28;97456;-76
2021/09/20 10:22:08;;;;;;;9.63;7.82;;;;;;;19.17;49.97;100556.94;4962470;28;97714;-76
2021/09/20 10:24:33;;;;;;;11.15;7.97;;;;;;;19.29;49.44;100557.09;4972607;28;101476;-77
2021/09/20 10:26:59;;;;;;;9.70;7.10;;;;;;;19.16;50.04;100552.56;4967086;28;101327;-77
2021/09/20 10:29:24;;;;;;;9.55;8.35;;;;;;;18.98;50.45;100554.63;4999001;28;97290;-77
2021/09/20 10:31:51;;;;;;;9.90;7.80;;;;;;;18.82;50.63;100547.75;4999401;28;97273;-77
2021/09/20 10:34:24;;;;;;;8.32;7.03;;;;;;;18.97;50.04;100555.59;4977750;28;98583;-77
2021/09/20 10:36:52;;;;;;;7.68;6.97;;;;;;;19.05;50.13;100551.56;4992330;28;97836;-79
2021/09/20 10:39:41;;;;;;;7.55;6.85;;;;;;;19.38;49.18;100562.63;4962181;28;97462;-80
2021/09/20 10:42:06;;;;;;;12.30;7.85;;;;;;;19.40;49.66;100555.41;5003290;28;97150;-80
2021/09/20 10:44:39;;;;;;;10.02;7.45;;;;;;;19.20;49.60;100558.56;4987094;28;101296;-79
2021/09/20 10:47:15;;;;;;;7.50;6.63;;;;;;;19.26;49.39;100566.13;4984573;28;101244;-80
2021/09/20 10:49:49;;;;;;;9.20;7.43;;;;;;;19.42;49.20;100555.28;4999498;28;97196;-80
2021/09/20 10:52:15;;;;;;;6.35;5.75;;;;;;;19.19;49.55;100570.13;4988167;28;97292;-80
2021/09/20 10:55:01;;;;;;;7.90;7.18;;;;;;;18.84;50.19;100565.31;4990801;28;101793;-79
2021/09/20 10:57:26;;;;;;;8.10;7.30;;;;;;;18.65;50.02;100562.97;4970476;28;98040;-78
2021/09/20 10:59:52;;;;;;;7.80;7.20;;;;;;;18.80;49.69;100557.66;4972978;28;97218;-78
2021/09/20 11:02:30;;;;;;;7.13;6.43;;;;;;;19.02;49.77;100565.06;4980542;28;97243;-81
2021/09/20 11:05:15;;;;;;;7.18;6.30;;;;;;;19.14;48.85;100556.28;5003623;28;97788;-80
2021/09/20 11:07:44;;;;;;;6.50;5.78;;;;;;;18.90;49.03;100551.59;4971962;28;101751;-80
2021/09/20 11:10:10;;;;;;;7.30;6.35;;;;;;;18.75;49.38;100561.44;4982640;28;97332;-80